Time;durP1;ratioP1;P1;durP2;ratioP2;P2;SDS_P1;SDS_P2;PMS_P1;PMS_P2;Temp;Humidity;BMP_temperature;BMP_pressure;BME280_temperature;BME280_humidity;BME280_pressure;Samples;Min_cycle;Max_cycle;Signal;HPM_P1;HPM_P2
2022/03/17 00:00:55;;;;;;;29.50;16.17;;;5.40;99.90;5.10;101758.00;;;;4956723;28;87816;-63
2022/03/17 00:03:22;;;;;;;25.07;15.37;;;5.30;99.90;5.10;101757.00;;;;4956511;28;87948;-63
2022/03/17 00:05:48;;;;;;;27.10;17.73;;;5.60;99.90;5.10;101767.00;;;;4941466;28;99938;-63
2022/03/17 00:08:15;;;;;;;26.33;19.40;;;5.50;99.90;5.00;101768.00;;;;4956057;28;103110;-63
2022/03/17 00:10:40;;;;;;;27.87;18.97;;;5.70;99.90;5.00;101762.00;;;;4956045;28;87780;-64
2022/03/17 00:13:06;;;;;;;30.20;18.63;;;5.20;99.90;5.00;101771.00;;;;4966973;28;108342;-64
2022/03/17 00:15:32;;;;;;;30.47;16.43;;;5.10;99.90;5.00;101761.00;;;;4955674;28;117244;-64
2022/03/17 00:17:58;;;;;;;29.83;16.70;;;5.10;99.90;4.90;101765.00;;;;4954778;28;116081;-63
2022/03/17 00:20:24;;;;;;;26.17;18.60;;;5.10;99.90;4.90;101769.00;;;;4955039;28;113445;-63
2022/03/17 00:22:50;;;;;;;30.67;15.73;;;5.10;99.90;4.90;101774.00;;;;4955899;28;108832;-63
2022/03/17 00:25:17;;;;;;;23.10;14.70;;;5.10;99.90;4.90;101781.00;;;;4956004;28;97737;-63
2022/03/17 00:27:43;;;;;;;31.97;18.90;;;5.60;99.90;4.90;101776.00;;;;4955999;28;88196;-63
2022/03/17 00:30:10;;;;;;;29.23;17.80;;;5.10;99.90;4.90;101773.00;;;;4954908;28;112668;-63
2022/03/17 00:32:38;;;;;;;27.13;17.80;;;5.50;99.90;4.80;101776.00;;;;4956078;28;88009;-64
2022/03/17 00:37:52;;;;;;;31.70;17.57;;;5.00;99.90;4.80;101771.00;;;;4956851;28;87872;-63
2022/03/17 00:40:17;;;;;;;25.53;18.27;;;5.00;99.90;4.80;101761.00;;;;4956173;28;102047;-63
2022/03/17 00:42:44;;;;;;;22.20;15.43;;;5.00;99.90;4.80;101758.00;;;;4954846;28;109821;-63
2022/03/17 00:45:12;;;;;;;27.40;17.43;;;4.90;99.90;4.70;101753.00;;;;4956340;28;88054;-64
2022/03/17 00:47:39;;;;;;;34.10;17.27;;;4.90;99.90;4.70;101752.00;;;;4956384;28;88585;-64
2022/03/17 00:50:06;;;;;;;25.00;16.77;;;4.90;99.90;4.70;101736.00;;;;4954789;28;104379;-64
2022/03/17 00:52:32;;;;;;;36.33;19.13;;;4.90;99.90;4.70;101744.00;;;;4955648;28;87646;-64
2022/03/17 00:54:58;;;;;;;29.03;20.20;;;4.90;99.90;4.60;101763.00;;;;4953322;28;118235;-64
2022/03/17 00:57:24;;;;;;;29.33;19.03;;;4.80;99.90;4.60;101755.00;;;;4954251;28;118409;-64
2022/03/17 00:59:50;;;;;;;31.97;19.03;;;4.80;99.90;4.60;101758.00;;;;4955992;28;87860;-64
2022/03/17 01:02:16;;;;;;;33.53;19.43;;;5.20;99.90;4.50;101760.00;;;;4955656;28;87839;-64
2022/03/17 01:04:42;;;;;;;35.90;18.97;;;5.30;99.90;4.50;101756.00;;;;4947417;28;117564;-64
2022/03/17 01:07:08;;;;;;;33.87;19.53;;;4.70;99.90;4.50;101756.00;;;;4946639;28;88023;-63
2022/03/17 01:09:34;;;;;;;28.93;17.77;;;4.70;99.90;4.40;101754.00;;;;4955516;28;99723;-64
2022/03/17 01:12:01;;;;;;;31.97;17.50;;;4.60;99.90;4.40;101746.00;;;;4958565;28;100937;-64
2022/03/17 01:14:27;;;;;;;29.63;16.40;;;4.60;99.90;4.40;101766.00;;;;4969858;28;105531;-64
2022/03/17 01:16:53;;;;;;;30.87;19.17;;;4.60;99.90;4.30;101756.00;;;;4954780;28;88615;-63
2022/03/17 01:19:19;;;;;;;27.80;17.67;;;4.50;99.90;4.30;101747.00;;;;4955545;28;88636;-63
2022/03/17 01:21:47;;;;;;;23.27;17.70;;;4.50;99.90;4.30;101745.00;;;;4954046;28;108280;-63
2022/03/17 01:24:12;;;;;;;33.77;19.33;;;4.40;99.90;4.20;101733.00;;;;4955991;28;89002;-63
2022/03/17 01:26:38;;;;;;;29.50;19.20;;;4.40;99.90;4.20;101736.00;;;;4955252;28;96459;-63
2022/03/17 01:29:04;;;;;;;25.63;18.37;;;4.40;99.90;4.20;101737.00;;;;4955208;28;87688;-64
2022/03/17 01:31:31;;;;;;;34.57;20.53;;;4.40;99.90;4.20;101731.00;;;;4954042;28;107684;-64
2022/03/17 01:33:58;;;;;;;27.73;20.27;;;4.40;99.90;4.20;101742.00;;;;4954959;28;88946;-63
2022/03/17 01:36:25;;;;;;;38.50;21.10;;;4.40;99.90;4.20;101733.00;;;;4955945;28;87686;-63
2022/03/17 01:38:50;;;;;;;29.20;18.80;;;4.40;99.90;4.20;101745.00;;;;4954809;28;95090;-63
2022/03/17 01:41:16;;;;;;;29.87;19.57;;;4.40;99.90;4.20;101739.00;;;;4954464;28;109723;-64
2022/03/17 01:43:43;;;;;;;29.70;18.67;;;4.30;99.90;4.20;101745.00;;;;4953516;28;119510;-63
2022/03/17 01:46:10;;;;;;;33.20;19.13;;;4.00;99.90;4.20;101749.00;;;;4955273;28;89789;-62
2022/03/17 01:48:35;;;;;;;30.30;18.90;;;4.80;99.90;4.20;101753.00;;;;4954752;28;89217;-63
2022/03/17 01:51:01;;;;;;;33.43;18.23;;;4.30;99.90;4.10;101744.00;;;;4954375;28;108467;-63
2022/03/17 01:53:26;;;;;;;35.67;20.10;;;4.70;99.90;4.10;101751.00;;;;4954229;28;117455;-64
2022/03/17 01:55:52;;;;;;;29.10;16.80;;;4.30;99.90;4.10;101744.00;;;;4953888;28;116892;-64
2022/03/17 01:58:18;;;;;;;27.87;17.57;;;4.30;99.90;4.10;101748.00;;;;4952019;28;112539;-65
2022/03/17 02:00:46;;;;;;;34.27;20.50;;;4.30;99.90;4.10;101745.00;;;;4952170;28;108927;-64
2022/03/17 02:03:12;;;;;;;34.00;19.30;;;4.30;99.90;4.10;101751.00;;;;4955885;28;87952;-63
2022/03/17 02:05:38;;;;;;;36.63;19.93;;;4.30;99.90;4.00;101751.00;;;;4939119;28;118906;-63
2022/03/17 02:08:09;;;;;;;35.00;20.27;;;4.20;99.90;4.00;101754.00;;;;4952552;28;88854;-63
2022/03/17 02:13:20;;;;;;;30.87;19.37;;;4.20;99.90;4.00;101751.00;;;;4968183;28;87798;-64
2022/03/17 02:15:54;;;;;;;32.97;19.70;;;4.60;99.90;4.00;101740.00;;;;4974752;28;87680;-63
2022/03/17 02:18:21;;;;;;;27.43;20.63;;;4.20;99.90;4.00;101741.00;;;;4950548;28;87918;-63
2022/03/17 02:20:48;;;;;;;33.43;19.97;;;4.10;99.90;3.90;101747.00;;;;4954036;28;94032;-63
2022/03/17 02:26:01;;;;;;;33.00;18.70;;;4.30;99.90;3.90;101743.00;;;;4954274;28;87146;-63
2022/03/17 02:28:29;;;;;;;30.17;20.00;;;4.10;99.90;3.90;101736.00;;;;4954817;28;87478;-63
2022/03/17 02:30:56;;;;;;;28.63;19.00;;;4.10;99.90;3.90;101735.00;;;;4953989;28;87532;-65
2022/03/17 02:33:22;;;;;;;38.50;22.57;;;4.10;99.90;3.90;101737.00;;;;4953815;28;88787;-65
2022/03/17 02:35:49;;;;;;;33.73;20.77;;;4.20;99.90;3.90;101731.00;;;;4953352;28;113298;-64
2022/03/17 02:38:17;;;;;;;31.90;19.10;;;4.00;99.90;3.80;101740.00;;;;4954072;28;87778;-65
2022/03/17 02:40:46;;;;;;;34.17;19.87;;;4.00;99.90;3.80;101732.00;;;;4953582;28;98757;-65
2022/03/17 02:43:14;;;;;;;28.50;18.37;;;4.00;99.90;3.80;101732.00;;;;4953794;28;109805;-64
2022/03/17 02:45:41;;;;;;;32.87;17.57;;;4.30;99.90;3.80;101718.00;;;;4953482;28;88628;-64
2022/03/17 02:48:07;;;;;;;29.20;19.23;;;4.00;99.90;3.80;101726.00;;;;4953966;28;88133;-64
2022/03/17 02:50:34;;;;;;;32.50;17.37;;;4.00;99.90;3.80;101737.00;;;;4953936;28;96720;-64
2022/03/17 02:53:05;;;;;;;28.37;20.27;;;4.30;99.90;3.80;101723.00;;;;4954023;28;88357;-63
2022/03/17 02:55:36;;;;;;;30.43;19.60;;;4.00;99.90;3.70;101726.00;;;;4953800;28;88758;-64
2022/03/17 02:58:05;;;;;;;39.20;21.00;;;4.00;99.90;3.70;101732.00;;;;4953121;28;97304;-63
2022/03/17 03:00:31;;;;;;;30.93;19.17;;;4.00;99.90;3.70;101722.00;;;;4953890;28;87668;-63
2022/03/17 03:02:57;;;;;;;33.57;21.67;;;3.90;99.90;3.70;101715.00;;;;4954393;28;89095;-64
2022/03/17 03:05:22;;;;;;;32.73;20.93;;;3.90;99.90;3.70;101735.00;;;;4940220;28;117367;-63
2022/03/17 03:07:49;;;;;;;31.83;20.23;;;3.90;99.90;3.70;101722.00;;;;4949954;28;112210;-64
2022/03/17 03:10:15;;;;;;;42.20;22.47;;;3.90;99.90;3.70;101719.00;;;;4952763;28;93098;-64
2022/03/17 03:12:41;;;;;;;38.73;22.20;;;3.90;99.90;3.70;101724.00;;;;4956475;28;110565;-62
2022/03/17 03:15:07;;;;;;;31.20;19.87;;;3.90;99.90;3.60;101715.00;;;;4954339;28;87577;-64
2022/03/17 03:17:33;;;;;;;33.17;21.90;;;3.90;99.90;3.60;101723.00;;;;4954191;28;88238;-64
2022/03/17 03:19:59;;;;;;;36.13;20.67;;;3.90;99.90;3.60;101726.00;;;;4957621;28;87648;-64
2022/03/17 03:22:29;;;;;;;38.33;20.37;;;3.80;99.90;3.60;101726.00;;;;4955749;28;119296;-64
2022/03/17 03:24:56;;;;;;;32.87;19.47;;;3.80;99.90;3.60;101721.00;;;;4957085;28;89512;-64
2022/03/17 03:27:27;;;;;;;27.53;18.30;;;3.80;99.90;3.50;101710.00;;;;4957204;28;87985;-64
2022/03/17 03:29:56;;;;;;;30.53;20.60;;;3.70;99.90;3.50;101723.00;;;;4957837;28;88110;-63
2022/03/17 03:32:23;;;;;;;32.37;18.47;;;3.70;99.90;3.50;101722.00;;;;4956495;28;98755;-63
2022/03/17 03:34:49;;;;;;;38.80;22.77;;;4.00;99.90;3.50;101712.00;;;;4957667;28;88650;-63
2022/03/17 03:37:24;;;;;;;36.90;20.47;;;4.40;99.90;3.50;101716.00;;;;4956733;28;94183;-63
2022/03/17 03:39:56;;;;;;;38.10;21.30;;;3.70;99.90;3.40;101719.00;;;;4958053;28;86953;-63
2022/03/17 03:42:24;;;;;;;34.40;21.73;;;3.60;99.90;3.40;101720.00;;;;4955743;28;109476;-63
2022/03/17 03:44:51;;;;;;;33.67;19.77;;;3.60;99.90;3.40;101726.00;;;;4956592;28;88341;-64
2022/03/17 03:47:18;;;;;;;36.20;20.90;;;3.60;99.90;3.40;101733.00;;;;4956310;28;88414;-63
2022/03/17 03:49:44;;;;;;;36.77;21.13;;;3.60;99.90;3.40;101720.00;;;;4955521;28;110043;-64
2022/03/17 03:52:13;;;;;;;34.33;15.87;;;3.60;99.90;3.30;101724.00;;;;4955670;28;118148;-64
2022/03/17 03:54:40;;;;;;;34.63;19.57;;;3.50;99.90;3.30;101719.00;;;;4955224;28;88244;-63
2022/03/17 03:57:07;;;;;;;32.97;21.50;;;3.80;99.90;3.30;101699.00;;;;4956150;28;87868;-63
2022/03/17 03:59:34;;;;;;;41.13;22.27;;;3.50;99.90;3.30;101708.00;;;;4957178;28;87918;-63
2022/03/17 04:02:06;;;;;;;34.67;19.70;;;3.50;99.90;3.30;101712.00;;;;4956853;28;88329;-61
2022/03/17 04:04:36;;;;;;;28.93;19.47;;;3.50;99.90;3.30;101706.00;;;;4954518;28;88491;-64
2022/03/17 04:07:05;;;;;;;39.90;22.63;;;3.50;99.90;3.20;101703.00;;;;4956577;28;87779;-64
2022/03/17 04:09:38;;;;;;;35.50;22.63;;;3.40;99.90;3.20;101709.00;;;;4956104;28;87699;-65
2022/03/17 04:12:05;;;;;;;37.87;21.80;;;3.40;99.90;3.20;101710.00;;;;4958464;28;89077;-64
2022/03/17 04:14:31;;;;;;;39.57;20.30;;;3.40;99.90;3.20;101713.00;;;;4969910;28;90493;-64
2022/03/17 04:16:57;;;;;;;41.97;21.27;;;3.40;99.90;3.10;101721.00;;;;4954582;28;110107;-64
2022/03/17 04:19:24;;;;;;;29.37;20.53;;;3.40;99.90;3.20;101715.00;;;;4956774;28;88109;-63
2022/03/17 04:21:50;;;;;;;39.00;23.40;;;3.30;99.90;3.10;101721.00;;;;4956070;28;88519;-63
2022/03/17 04:24:17;;;;;;;41.53;22.20;;;3.40;99.90;3.10;101722.00;;;;4956712;28;88181;-64
2022/03/17 04:26:45;;;;;;;35.00;21.20;;;3.40;99.90;3.10;101721.00;;;;4955564;28;106653;-63
2022/03/17 04:29:12;;;;;;;31.63;20.77;;;3.30;99.90;3.10;101733.00;;;;4960102;28;103669;-64
2022/03/17 04:31:40;;;;;;;38.07;23.43;;;3.40;99.90;3.10;101722.00;;;;4962762;28;89127;-63
2022/03/17 04:34:06;;;;;;;28.27;18.20;;;3.70;99.90;3.10;101720.00;;;;4958910;28;88138;-63
2022/03/17 04:36:32;;;;;;;31.40;18.63;;;3.30;99.90;3.10;101719.00;;;;4955082;28;88720;-63
2022/03/17 04:39:00;;;;;;;36.50;20.90;;;3.30;99.90;3.10;101709.00;;;;4955488;28;102974;-63
2022/03/17 04:41:25;;;;;;;32.83;21.43;;;3.30;99.90;3.10;101716.00;;;;4955160;28;103506;-64
2022/03/17 04:43:51;;;;;;;39.10;21.93;;;3.30;99.90;3.10;101725.00;;;;4955517;28;109562;-64
2022/03/17 04:46:17;;;;;;;36.13;23.87;;;3.30;99.90;3.00;101703.00;;;;4956140;28;87606;-64
2022/03/17 04:48:43;;;;;;;39.53;21.90;;;3.30;99.90;3.00;101717.00;;;;4956271;28;87804;-63
2022/03/17 04:51:09;;;;;;;41.47;22.33;;;3.20;99.90;3.00;101714.00;;;;4955181;28;88049;-64
2022/03/17 04:53:35;;;;;;;37.37;23.37;;;3.20;99.90;3.00;101717.00;;;;4955379;28;109437;-64
2022/03/17 04:56:04;;;;;;;35.90;20.80;;;3.20;99.90;3.00;101720.00;;;;4955260;28;102701;-64
2022/03/17 04:58:32;;;;;;;33.50;20.43;;;3.20;99.90;3.00;101731.00;;;;4956073;28;87797;-63
2022/03/17 05:00:59;;;;;;;36.27;21.77;;;3.80;99.90;3.00;101713.00;;;;4954881;28;89515;-63
2022/03/17 05:03:26;;;;;;;31.47;20.73;;;3.20;99.90;3.00;101718.00;;;;4954479;28;107223;-63
2022/03/17 05:05:52;;;;;;;37.13;21.10;;;3.20;99.90;3.00;101707.00;;;;4940497;28;88156;-63
2022/03/17 05:08:18;;;;;;;32.23;19.83;;;3.10;99.90;3.00;101713.00;;;;4955954;28;88146;-63
2022/03/17 05:10:45;;;;;;;34.53;20.87;;;3.20;99.90;3.00;101708.00;;;;4955436;28;89506;-64
2022/03/17 05:13:12;;;;;;;36.03;20.50;;;3.20;99.90;3.00;101708.00;;;;4967083;28;89631;-64
2022/03/17 05:15:38;;;;;;;39.73;22.20;;;3.10;99.90;3.00;101711.00;;;;4974783;28;87839;-64
2022/03/17 05:18:06;;;;;;;35.13;21.67;;;3.20;99.90;3.00;101710.00;;;;4957134;28;87169;-64
2022/03/17 05:20:34;;;;;;;30.50;19.67;;;3.10;99.90;3.00;101720.00;;;;4955313;28;88141;-64
2022/03/17 05:23:00;;;;;;;35.47;20.90;;;3.20;99.90;3.00;101712.00;;;;4954415;28;106449;-65
2022/03/17 05:25:25;;;;;;;35.80;22.10;;;3.20;99.90;3.00;101716.00;;;;4953676;28;110237;-64
2022/03/17 05:27:51;;;;;;;33.03;20.57;;;3.20;99.90;3.00;101725.00;;;;4954080;28;102825;-65
2022/03/17 05:30:20;;;;;;;31.83;19.57;;;3.20;99.90;3.00;101724.00;;;;4953819;28;117311;-66
2022/03/17 05:32:47;;;;;;;33.67;20.20;;;3.80;99.90;3.00;101722.00;;;;4952853;28;88352;-64
2022/03/17 05:35:15;;;;;;;34.37;22.00;;;3.20;99.90;3.00;101717.00;;;;4954821;28;100631;-64
2022/03/17 05:37:41;;;;;;;32.60;21.97;;;3.10;99.90;3.00;101709.00;;;;4955121;28;87666;-64
2022/03/17 05:40:13;;;;;;;36.83;22.60;;;3.20;99.90;3.00;101716.00;;;;4954629;28;109684;-63
2022/03/17 05:42:43;;;;;;;35.00;23.07;;;3.10;99.90;3.00;101727.00;;;;4955125;28;87341;-64
2022/03/17 05:45:10;;;;;;;30.60;19.73;;;3.10;99.90;3.00;101721.00;;;;4954163;28;105011;-64
2022/03/17 05:47:57;;;;;;;38.60;22.50;;;3.20;99.90;3.00;101724.00;;;;4955543;28;87816;-63
2022/03/17 05:50:30;;;;;;;30.73;20.77;;;3.20;99.90;3.00;101716.00;;;;4954921;28;88751;-63
2022/03/17 05:52:56;;;;;;;36.13;18.50;;;3.20;99.90;3.00;101714.00;;;;4954693;28;89496;-63
2022/03/17 05:55:25;;;;;;;37.50;20.33;;;3.20;99.90;3.00;101719.00;;;;4954141;28;111423;-63
2022/03/17 05:57:54;;;;;;;45.60;22.37;;;3.20;99.90;3.10;101718.00;;;;4954836;28;87942;-63
2022/03/17 06:00:25;;;;;;;29.90;20.23;;;3.30;99.90;3.10;101723.00;;;;4954605;28;88942;-64
2022/03/17 06:02:52;;;;;;;36.43;23.47;;;3.30;99.90;3.10;101713.00;;;;4954676;28;87777;-64
2022/03/17 06:05:17;;;;;;;34.80;20.47;;;3.30;99.90;3.10;101722.00;;;;4942394;28;98312;-64
2022/03/17 06:07:48;;;;;;;42.73;23.03;;;3.30;99.90;3.10;101722.00;;;;4951780;28;95834;-64
2022/03/17 06:10:17;;;;;;;35.17;22.63;;;3.30;99.90;3.20;101729.00;;;;4955756;28;87591;-64
2022/03/17 06:12:44;;;;;;;32.13;21.60;;;3.40;99.90;3.20;101719.00;;;;4965149;28;102833;-64
2022/03/17 06:15:11;;;;;;;44.90;23.13;;;3.40;99.90;3.20;101726.00;;;;4959772;28;88442;-63
2022/03/17 06:17:49;;;;;;;32.83;20.57;;;3.40;99.90;3.20;101735.00;;;;4954114;28;100623;-63
2022/03/17 06:20:18;;;;;;;33.30;22.40;;;3.40;99.90;3.20;101730.00;;;;4954316;28;88047;-64
2022/03/17 06:22:47;;;;;;;34.97;21.03;;;3.40;99.90;3.20;101730.00;;;;4954480;28;87704;-64
2022/03/17 06:25:19;;;;;;;39.00;21.63;;;3.40;99.90;3.30;101750.00;;;;4955001;28;87886;-64
2022/03/17 06:27:46;;;;;;;40.63;21.67;;;3.40;99.90;3.30;101750.00;;;;4954783;28;89042;-65
2022/03/17 06:30:16;;;;;;;40.77;24.30;;;3.40;99.90;3.40;101752.00;;;;4953456;28;105318;-64
2022/03/17 06:32:42;;;;;;;34.03;22.43;;;3.50;99.90;3.40;101744.00;;;;4954523;28;87454;-64
2022/03/17 06:35:24;;;;;;;34.67;21.97;;;3.60;99.90;3.40;101742.00;;;;4955452;28;87929;-64
2022/03/17 06:37:58;;;;;;;44.00;22.33;;;3.60;99.90;3.50;101749.00;;;;4955879;28;87796;-63
2022/03/17 06:40:26;;;;;;;36.50;23.40;;;3.70;99.90;3.50;101749.00;;;;4954068;28;90208;-65
2022/03/17 06:42:54;;;;;;;38.87;22.87;;;3.70;99.90;3.60;101753.00;;;;4954804;28;88015;-64
2022/03/17 06:45:20;;;;;;;41.17;23.53;;;3.70;99.90;3.60;101752.00;;;;4955021;28;87917;-64
2022/03/17 06:47:46;;;;;;;29.43;18.80;;;3.80;99.90;3.70;101752.00;;;;4954768;28;91046;-63
2022/03/17 06:50:14;;;;;;;36.53;21.67;;;3.80;99.90;3.80;101760.00;;;;4954478;28;111639;-63
2022/03/17 06:52:40;;;;;;;37.00;22.10;;;3.90;99.90;3.80;101745.00;;;;4954768;28;88374;-64
2022/03/17 06:55:08;;;;;;;33.57;22.30;;;4.00;99.90;3.90;101745.00;;;;4957249;28;112472;-63
2022/03/17 06:57:33;;;;;;;34.43;21.97;;;4.00;99.90;4.00;101747.00;;;;4957899;28;86839;-63
2022/03/17 07:00:03;;;;;;;33.50;21.67;;;4.10;99.90;4.00;101738.00;;;;4957055;28;102402;-64
2022/03/17 07:02:28;;;;;;;30.87;21.37;;;4.10;99.90;4.10;101746.00;;;;4957173;28;102640;-63
2022/03/17 07:04:54;;;;;;;30.87;19.13;;;4.20;99.90;4.10;101759.00;;;;4947777;28;112373;-64
2022/03/17 07:07:20;;;;;;;35.63;22.97;;;4.30;99.90;4.20;101754.00;;;;4950202;28;98177;-63
2022/03/17 07:09:45;;;;;;;31.07;20.33;;;4.30;99.90;4.30;101753.00;;;;4957852;28;114137;-63
2022/03/17 07:12:14;;;;;;;31.97;21.40;;;4.40;99.90;4.40;101757.00;;;;4957366;28;96604;-64
2022/03/17 07:14:40;;;;;;;29.57;19.13;;;4.50;99.90;4.40;101762.00;;;;4956796;28;87856;-64
2022/03/17 07:17:06;;;;;;;35.33;21.03;;;4.50;99.90;4.60;101764.00;;;;4957672;28;87961;-64
2022/03/17 07:19:32;;;;;;;37.17;19.93;;;4.70;99.90;4.70;101763.00;;;;4955364;28;93327;-64
2022/03/17 07:21:58;;;;;;;27.43;19.13;;;4.70;99.90;4.70;101771.00;;;;4958981;28;97831;-64
2022/03/17 07:24:24;;;;;;;28.03;19.47;;;4.80;99.90;4.90;101777.00;;;;4954783;28;92880;-64
2022/03/17 07:26:49;;;;;;;34.23;20.20;;;5.20;99.90;4.90;101777.00;;;;4954499;28;105036;-63
2022/03/17 07:29:15;;;;;;;32.17;20.70;;;5.00;99.90;5.00;101772.00;;;;4953377;28;124236;-63
2022/03/17 07:31:41;;;;;;;33.07;20.97;;;5.00;99.90;5.10;101775.00;;;;4953721;28;126415;-65
2022/03/17 07:34:06;;;;;;;30.37;19.83;;;5.10;99.90;5.10;101779.00;;;;4953928;28;111852;-64
2022/03/17 07:36:32;;;;;;;30.40;19.70;;;5.20;99.90;5.20;101795.00;;;;4953884;28;108879;-64
2022/03/17 07:38:58;;;;;;;31.07;20.80;;;5.30;99.90;5.30;101794.00;;;;4953398;28;123924;-64
2022/03/17 07:41:25;;;;;;;31.03;19.23;;;5.40;99.90;5.30;101803.00;;;;4954846;28;102362;-64
2022/03/17 07:43:51;;;;;;;34.53;19.77;;;5.40;99.90;5.40;101802.00;;;;4954672;28;96254;-63
2022/03/17 07:46:18;;;;;;;38.60;22.10;;;5.90;99.90;5.50;101793.00;;;;4955368;28;92158;-63
2022/03/17 07:48:44;;;;;;;33.57;20.33;;;5.60;99.90;5.60;101796.00;;;;4955241;28;92897;-64
2022/03/17 07:51:10;;;;;;;34.07;19.30;;;5.60;99.90;5.70;101804.00;;;;4951347;28;93445;-63
2022/03/17 07:53:37;;;;;;;30.07;19.13;;;5.80;99.90;5.80;101807.00;;;;4953811;28;95797;-64
2022/03/17 07:56:03;;;;;;;30.17;18.53;;;5.90;99.90;5.90;101810.00;;;;4955046;28;92968;-64
2022/03/17 07:58:31;;;;;;;32.33;19.50;;;5.90;99.90;5.90;101803.00;;;;4954296;28;93509;-64
2022/03/17 08:00:59;;;;;;;30.87;19.60;;;6.00;99.90;6.00;101813.00;;;;4952671;28;94318;-64
2022/03/17 08:03:26;;;;;;;31.03;19.60;;;6.00;99.90;6.10;101802.00;;;;4954046;28;92955;-64
2022/03/17 08:05:52;;;;;;;30.60;21.13;;;6.50;99.90;6.20;101816.00;;;;4936836;28;92764;-64
2022/03/17 08:08:18;;;;;;;29.30;18.13;;;6.70;99.90;6.30;101813.00;;;;4954100;28;93538;-63
2022/03/17 08:10:44;;;;;;;33.73;19.43;;;6.30;99.90;6.50;101806.00;;;;4955421;28;105860;-63
2022/03/17 08:13:11;;;;;;;35.10;20.70;;;6.50;99.90;6.60;101816.00;;;;4956240;28;93097;-64
2022/03/17 08:15:38;;;;;;;29.73;18.63;;;6.60;99.90;6.70;101819.00;;;;4954721;28;93052;-63
2022/03/17 08:18:04;;;;;;;29.20;19.77;;;6.70;99.90;6.80;101823.00;;;;4953139;28;94145;-64
2022/03/17 08:20:31;;;;;;;30.53;18.63;;;6.80;99.90;6.90;101823.00;;;;4954313;28;94974;-64
2022/03/17 08:22:57;;;;;;;30.63;18.00;;;7.30;99.90;7.00;101819.00;;;;4954141;28;113366;-64
2022/03/17 08:25:23;;;;;;;40.10;18.97;;;7.20;99.90;7.20;101817.00;;;;4954700;28;93025;-64
2022/03/17 08:27:52;;;;;;;35.83;19.07;;;7.10;99.90;7.30;101827.00;;;;4953096;28;123700;-63
2022/03/17 08:30:17;;;;;;;35.80;19.17;;;7.30;99.90;7.40;101823.00;;;;4954199;28;93931;-64
2022/03/17 08:32:43;;;;;;;34.07;20.17;;;7.40;99.90;7.40;101820.00;;;;4953585;28;113546;-64
2022/03/17 08:35:10;;;;;;;40.50;19.80;;;7.40;99.90;7.50;101815.00;;;;4955049;28;92103;-64
2022/03/17 08:37:45;;;;;;;29.27;17.93;;;7.50;99.90;7.60;101821.00;;;;4953767;28;94218;-64
2022/03/17 08:40:13;;;;;;;32.43;19.67;;;7.60;99.90;7.60;101822.00;;;;4953610;28;94114;-64
2022/03/17 08:42:40;;;;;;;37.17;19.23;;;7.70;99.90;7.70;101829.00;;;;4952180;28;105324;-63
2022/03/17 08:50:43;;;;;;;31.70;17.37;;;7.90;99.90;8.00;101828.00;;;;4952398;28;92966;-63
2022/03/17 08:53:09;;;;;;;30.73;18.00;;;8.00;99.90;8.10;101822.00;;;;4953816;28;93173;-63
2022/03/17 08:55:36;;;;;;;33.80;20.73;;;8.10;99.90;8.20;101828.00;;;;4954210;28;92695;-63
2022/03/17 08:58:03;;;;;;;26.10;18.60;;;8.20;99.90;8.30;101826.00;;;;4953268;28;94117;-63
2022/03/17 09:00:34;;;;;;;22.17;16.23;;;8.30;99.90;8.40;101823.00;;;;4953550;28;93779;-65
2022/03/17 09:03:06;;;;;;;31.67;19.20;;;8.40;99.90;8.50;101821.00;;;;4953816;28;92990;-64
2022/03/17 09:05:33;;;;;;;33.60;18.57;;;8.40;99.90;8.60;101817.00;;;;4940384;28;92938;-64
2022/03/17 09:07:59;;;;;;;31.33;18.53;;;8.50;99.90;8.60;101814.00;;;;4952931;28;95424;-64
2022/03/17 09:10:26;;;;;;;29.60;16.90;;;8.60;99.90;8.70;101814.00;;;;4952767;28;94359;-64
2022/03/17 09:12:57;;;;;;;29.70;18.90;;;8.70;99.90;8.80;101813.00;;;;4964179;28;93011;-64
2022/03/17 09:15:24;;;;;;;29.33;17.87;;;8.80;99.90;8.90;101816.00;;;;4960242;28;92734;-64
2022/03/17 09:17:50;;;;;;;32.13;17.93;;;8.90;99.90;9.10;101818.00;;;;4953192;28;93990;-64
2022/03/17 09:20:17;;;;;;;45.53;19.50;;;9.00;99.90;9.20;101821.00;;;;4953113;28;107806;-65
2022/03/17 09:22:43;;;;;;;31.60;18.90;;;9.10;99.90;9.30;101812.00;;;;4952283;28;99800;-64
2022/03/17 09:25:10;;;;;;;24.97;17.37;;;9.30;99.90;9.50;101817.00;;;;4953737;28;91980;-65
2022/03/17 09:27:37;;;;;;;34.70;17.47;;;9.40;99.90;9.60;101829.00;;;;4953140;28;93769;-64
2022/03/17 09:30:04;;;;;;;23.40;16.97;;;9.60;99.90;9.80;101835.00;;;;4952852;28;94026;-64
2022/03/17 09:32:31;;;;;;;26.57;17.73;;;9.70;99.90;9.90;101825.00;;;;4952592;28;93805;-64
2022/03/17 09:34:58;;;;;;;32.00;17.97;;;9.80;99.90;10.00;101823.00;;;;4953259;28;92774;-64
2022/03/17 09:37:25;;;;;;;29.33;18.50;;;9.90;99.90;10.10;101822.00;;;;4951966;28;93945;-64
2022/03/17 09:39:51;;;;;;;27.67;16.50;;;10.00;99.90;10.20;101825.00;;;;4952562;28;93479;-65
2022/03/17 09:42:20;;;;;;;29.10;18.70;;;10.10;99.90;10.30;101826.00;;;;4952253;28;92820;-65
2022/03/17 09:44:54;;;;;;;27.73;17.73;;;10.60;99.90;10.40;101829.00;;;;4950722;28;92753;-63
2022/03/17 09:47:27;;;;;;;29.47;18.13;;;10.30;99.90;10.40;101823.00;;;;4951712;28;93171;-64
2022/03/17 09:49:54;;;;;;;24.40;15.33;;;10.40;99.90;10.40;101809.00;;;;4952767;28;93705;-64
2022/03/17 09:52:21;;;;;;;24.97;16.90;;;10.40;99.90;10.50;101821.00;;;;4952705;28;92766;-65
2022/03/17 09:54:49;;;;;;;26.97;17.13;;;10.40;99.90;10.50;101829.00;;;;4953003;28;92764;-64
2022/03/17 09:57:16;;;;;;;26.70;17.93;;;10.50;99.90;10.60;101821.00;;;;4951563;28;93928;-65
2022/03/17 09:59:48;;;;;;;25.77;16.40;;;10.50;99.90;10.70;101827.00;;;;4952497;28;93842;-64
2022/03/17 10:02:16;;;;;;;25.53;16.27;;;10.60;99.90;10.80;101824.00;;;;4951964;28;92458;-65
2022/03/17 10:04:45;;;;;;;30.87;17.43;;;10.70;99.90;10.90;101829.00;;;;4950876;28;92914;-64
2022/03/17 10:07:17;;;;;;;23.30;15.33;;;10.80;99.90;11.00;101830.00;;;;4952045;28;94159;-65
2022/03/17 10:09:43;;;;;;;26.37;15.27;;;10.90;99.90;11.10;101838.00;;;;4951545;28;92779;-64
2022/03/17 10:12:13;;;;;;;27.27;16.40;;;11.00;99.90;11.20;101840.00;;;;4955726;28;92758;-64
2022/03/17 10:14:45;;;;;;;22.53;14.80;;;11.10;99.90;11.30;101836.00;;;;4972785;28;91981;-65
2022/03/17 10:17:39;;;;;;;25.33;15.87;;;11.20;98.20;11.40;101835.00;;;;4959362;28;100382;-64
2022/03/17 10:20:19;;;;;;;19.77;14.17;;;11.30;96.80;11.40;101833.00;;;;4952038;28;92779;-65
2022/03/17 10:22:57;;;;;;;21.67;15.23;;;11.40;93.90;11.50;101841.00;;;;4951632;28;93604;-64
2022/03/17 10:25:25;;;;;;;27.50;16.30;;;11.40;94.50;11.60;101846.00;;;;4951848;28;93180;-65
2022/03/17 10:27:55;;;;;;;25.83;15.50;;;11.50;94.80;11.70;101839.00;;;;4953226;28;93977;-65
2022/03/17 10:30:35;;;;;;;24.33;14.30;;;11.60;95.10;11.80;101841.00;;;;4955234;28;93533;-64
2022/03/17 10:33:09;;;;;;;32.73;16.37;;;11.70;94.80;11.80;101837.00;;;;4956082;28;92931;-65
2022/03/17 10:35:36;;;;;;;23.37;15.27;;;11.80;91.70;11.90;101829.00;;;;4956239;28;92948;-65
2022/03/17 10:38:16;;;;;;;23.23;14.87;;;11.80;90.80;12.00;101842.00;;;;4955699;28;93296;-66
2022/03/17 10:40:44;;;;;;;29.87;15.83;;;11.90;91.50;12.10;101837.00;;;;4955400;28;93631;-65
2022/03/17 10:43:24;;;;;;;25.33;14.70;;;12.00;91.70;12.10;101844.00;;;;4953120;28;93207;-64
2022/03/17 10:46:07;;;;;;;23.63;14.60;;;12.00;90.40;12.10;101833.00;;;;4955670;28;92809;-65
2022/03/17 10:48:34;;;;;;;19.10;12.67;;;12.00;90.00;12.10;101834.00;;;;4953712;28;100080;-65
2022/03/17 10:50:59;;;;;;;22.23;14.30;;;12.00;88.00;12.10;101836.00;;;;4955158;28;93748;-65
2022/03/17 10:53:30;;;;;;;18.57;12.77;;;12.00;86.90;12.10;101835.00;;;;4952730;28;110845;-65
2022/03/17 10:56:12;;;;;;;23.00;14.83;;;12.10;85.80;12.10;101842.00;;;;4955009;28;93315;-65
2022/03/17 10:58:43;;;;;;;24.97;15.33;;;12.10;82.90;12.10;101832.00;;;;4954784;28;92932;-64